createdAt,value
2018-06-27T00:00:02.781Z,98654.98
2018-06-27T00:01:07.328Z,98651.73
2018-06-27T00:02:11.811Z,98648.20
2018-06-27T00:03:18.249Z,98656.62
2018-06-27T00:04:23.613Z,98653.28
2018-06-27T00:05:28.461Z,98657.00
2018-06-27T00:06:32.972Z,98651.72
2018-06-27T00:07:38.433Z,98651.56
2018-06-27T00:08:43.006Z,98657.69
2018-06-27T00:09:47.539Z,98654.34
2018-06-27T00:10:52.013Z,98652.72
2018-06-27T00:11:56.811Z,98644.95
2018-06-27T00:13:02.609Z,98650.75
2018-06-27T00:14:07.231Z,98645.22
2018-06-27T00:15:11.769Z,98645.77
2018-06-27T00:16:16.338Z,98643.23
2018-06-27T00:17:21.023Z,98644.31
2018-06-27T00:18:25.876Z,98643.52
2018-06-27T00:19:30.394Z,98646.05
2018-06-27T00:20:36.517Z,98643.52
2018-06-27T00:21:41.122Z,98640.00
2018-06-27T00:22:45.652Z,98637.98
2018-06-27T00:23:51.161Z,98636.55
2018-06-27T00:24:55.991Z,98638.54
2018-06-27T00:26:00.535Z,98639.78
2018-06-27T00:27:05.049Z,98638.80
2018-06-27T00:28:09.572Z,98635.24
2018-06-27T00:29:15.890Z,98639.21
2018-06-27T00:30:21.380Z,98632.17
2018-06-27T00:31:26.871Z,98636.14
2018-06-27T00:32:31.474Z,98636.81
2018-06-27T00:33:36.036Z,98635.64
2018-06-27T00:34:41.161Z,98632.92
2018-06-27T00:35:45.694Z,98638.16
2018-06-27T00:36:50.529Z,98633.73
2018-06-27T00:37:55.037Z,98636.45
2018-06-27T00:39:00.227Z,98635.84
2018-06-27T00:40:04.754Z,98633.92
2018-06-27T00:41:09.278Z,98633.47
2018-06-27T00:42:13.794Z,98629.20
2018-06-27T00:43:18.572Z,98636.72
2018-06-27T00:44:23.375Z,98632.80
2018-06-27T00:45:28.813Z,98631.71
2018-06-27T00:46:35.592Z,98638.27
2018-06-27T00:47:40.192Z,98634.97
2018-06-27T00:48:44.771Z,98638.30
2018-06-27T00:49:49.620Z,98636.41
2018-06-27T00:50:54.154Z,98631.98
2018-06-27T00:51:58.712Z,98631.63
2018-06-27T00:53:03.242Z,98634.25
2018-06-27T00:54:10.453Z,98632.66
2018-06-27T00:55:15.682Z,98630.55
2018-06-27T00:56:21.588Z,98633.17
2018-06-27T00:57:26.086Z,98627.94
2018-06-27T00:58:31.509Z,98623.69
2018-06-27T00:59:36.062Z,98626.88
2018-06-27T01:00:40.566Z,98627.51
2018-06-27T01:01:45.843Z,98626.98
2018-06-27T01:02:50.615Z,98622.25
2018-06-27T01:03:55.130Z,98629.47
2018-06-27T01:04:59.751Z,98628.87
2018-06-27T01:06:04.294Z,98629.77
2018-06-27T01:07:08.785Z,98629.58
2018-06-27T01:08:13.303Z,98631.97
2018-06-27T01:09:18.136Z,98634.91
2018-06-27T01:10:22.713Z,98635.41
2018-06-27T01:11:27.229Z,98629.55
2018-06-27T01:12:31.738Z,98636.56
2018-06-27T01:13:36.256Z,98636.20
2018-06-27T01:14:40.762Z,98635.47
2018-06-27T01:15:45.573Z,98638.64
2018-06-27T01:16:50.151Z,98637.79
2018-06-27T01:17:57.002Z,98634.91
2018-06-27T01:19:01.606Z,98637.42
2018-06-27T01:20:06.571Z,98633.52
2018-06-27T01:21:11.387Z,98637.58
2018-06-27T01:22:17.226Z,98637.95
2018-06-27T01:23:21.738Z,98640.92
2018-06-27T01:24:27.000Z,98645.47
2018-06-27T01:25:31.545Z,98637.95
2018-06-27T01:26:36.918Z,98639.74
2018-06-27T01:27:41.463Z,98643.68
2018-06-27T01:28:46.288Z,98643.97
2018-06-27T01:29:54.108Z,98640.58
2018-06-27T01:30:58.675Z,98646.64
2018-06-27T01:32:03.214Z,98639.03
2018-06-27T01:33:07.724Z,98646.07
2018-06-27T01:34:12.209Z,98640.21
2018-06-27T01:35:16.995Z,98643.48
2018-06-27T01:36:21.477Z,98636.31
2018-06-27T01:37:26.609Z,98642.17
2018-06-27T01:38:31.478Z,98642.09
2018-06-27T01:39:36.623Z,98643.13
2018-06-27T01:40:41.526Z,98646.09
2018-06-27T01:41:46.331Z,98645.04
2018-06-27T01:42:53.133Z,98648.82
2018-06-27T01:43:57.665Z,98651.55
2018-06-27T01:45:02.336Z,98645.05
2018-06-27T01:46:07.761Z,98648.22
2018-06-27T01:47:12.271Z,98651.24
2018-06-27T01:48:17.113Z,98649.48
2018-06-27T01:49:21.604Z,98652.16
2018-06-27T01:50:26.901Z,98655.88
2018-06-27T01:51:31.497Z,98654.38
2018-06-27T01:52:36.974Z,98655.56
2018-06-27T01:53:41.521Z,98648.09
2018-06-27T01:54:47.282Z,98650.08
2018-06-27T01:55:52.382Z,98656.75
2018-06-27T01:56:56.840Z,98652.55
2018-06-27T01:58:02.036Z,98661.59
2018-06-27T01:59:07.455Z,98655.59
2018-06-27T02:00:11.988Z,98659.37
2018-06-27T02:01:16.813Z,98658.11
2018-06-27T02:02:21.288Z,98660.78
2018-06-27T02:03:25.781Z,98659.89
2018-06-27T02:04:30.265Z,98659.95
2018-06-27T02:05:36.658Z,98659.05
2018-06-27T02:06:41.177Z,98664.47
2018-06-27T02:07:47.647Z,98661.34
2018-06-27T02:08:53.000Z,98662.60
2018-06-27T02:09:57.518Z,98669.27
2018-06-27T02:11:02.038Z,98666.63
2018-06-27T02:12:06.529Z,98664.69
2018-06-27T02:13:11.245Z,98670.97
2018-06-27T02:14:16.059Z,98665.03
2018-06-27T02:15:20.512Z,98661.77
2018-06-27T02:16:25.006Z,98671.94
2018-06-27T02:17:29.486Z,98668.73
2018-06-27T02:18:34.009Z,98667.31
2018-06-27T02:19:38.519Z,98673.09
2018-06-27T02:20:43.301Z,98670.20
2018-06-27T02:21:47.814Z,98670.89
2018-06-27T02:22:54.691Z,98669.84
2018-06-27T02:23:59.418Z,98674.11
2018-06-27T02:25:05.368Z,98672.69
2018-06-27T02:26:09.905Z,98674.67
2018-06-27T02:27:14.686Z,98672.96
2018-06-27T02:28:19.238Z,98671.70
2018-06-27T02:29:23.739Z,98668.02
2018-06-27T02:30:28.232Z,98672.98
2018-06-27T02:31:32.730Z,98675.34
2018-06-27T02:32:37.342Z,98673.70
2018-06-27T02:33:42.156Z,98673.77
2018-06-27T02:34:46.759Z,98677.27
2018-06-27T02:35:51.677Z,98676.09
2018-06-27T02:36:57.956Z,98672.02
2018-06-27T02:38:02.457Z,98671.33
2018-06-27T02:39:07.778Z,98675.61
2018-06-27T02:40:12.607Z,98675.03
2018-06-27T02:41:17.097Z,98671.91
2018-06-27T02:42:21.776Z,98671.83
2018-06-27T02:43:26.364Z,98672.72
2018-06-27T02:44:30.877Z,98677.84
2018-06-27T02:45:36.319Z,98670.36
2018-06-27T02:46:41.526Z,98672.80
2018-06-27T02:47:46.108Z,98671.91
2018-06-27T02:48:50.660Z,98673.98
2018-06-27T02:49:55.298Z,98677.84
2018-06-27T02:50:59.804Z,98676.66
2018-06-27T02:52:04.631Z,98677.23
2018-06-27T02:53:09.166Z,98681.70
2018-06-27T02:54:13.910Z,98681.11
2018-06-27T02:55:18.497Z,98678.73
2018-06-27T02:56:23.095Z,98676.77
2018-06-27T02:57:27.620Z,98675.80
2018-06-27T02:58:33.197Z,98680.89
2018-06-27T02:59:38.233Z,98679.03
2018-06-27T03:00:42.740Z,98682.48
2018-06-27T03:01:48.096Z,98679.58
2018-06-27T03:02:53.057Z,98677.28
2018-06-27T03:03:58.013Z,98678.19
2018-06-27T03:05:03.373Z,98682.86
2018-06-27T03:06:08.757Z,98678.05
2018-06-27T03:07:13.264Z,98675.34
2018-06-27T03:08:20.777Z,98676.89
2018-06-27T03:09:25.483Z,98680.52
2018-06-27T03:10:30.077Z,98680.94
2018-06-27T03:11:35.039Z,98676.05
2018-06-27T03:12:39.716Z,98678.86
2018-06-27T03:13:44.349Z,98683.97
2018-06-27T03:14:49.007Z,98678.33
2018-06-27T03:15:54.196Z,98672.39
2018-06-27T03:17:00.099Z,98677.64
2018-06-27T03:18:07.702Z,98667.48
2018-06-27T03:19:12.682Z,98674.39
2018-06-27T03:20:17.365Z,98672.69
2018-06-27T03:21:22.257Z,98675.50
2018-06-27T03:22:26.749Z,98669.88
2018-06-27T03:23:31.574Z,98674.33
2018-06-27T03:24:36.901Z,98672.91
2018-06-27T03:25:41.378Z,98671.48
2018-06-27T03:26:45.911Z,98673.27
2018-06-27T03:27:50.420Z,98671.44
2018-06-27T03:28:54.899Z,98671.44
2018-06-27T03:29:59.716Z,98672.97
2018-06-27T03:31:04.309Z,98669.06
2018-06-27T03:32:09.454Z,98674.68
2018-06-27T03:33:13.959Z,98667.94
2018-06-27T03:34:19.176Z,98671.66
2018-06-27T03:35:23.700Z,98674.11
2018-06-27T03:36:28.670Z,98671.88
2018-06-27T03:37:33.200Z,98672.14
2018-06-27T03:38:37.871Z,98666.60
2018-06-27T03:39:42.658Z,98674.90
2018-06-27T03:40:48.507Z,98673.34
2018-06-27T03:41:52.990Z,98668.75
2018-06-27T03:42:59.178Z,98673.33
2018-06-27T03:44:03.706Z,98675.61
2018-06-27T03:45:11.216Z,98669.45
2018-06-27T03:46:15.745Z,98671.81
2018-06-27T03:47:20.310Z,98672.77
2018-06-27T03:48:24.862Z,98676.83
2018-06-27T03:49:29.813Z,98682.84
2018-06-27T03:50:35.300Z,98679.58
2018-06-27T03:51:40.509Z,98681.33
2018-06-27T03:52:48.129Z,98678.23
2018-06-27T03:53:59.026Z,98683.61
2018-06-27T03:55:04.563Z,98679.14
2018-06-27T03:56:10.160Z,98679.52
2018-06-27T03:57:15.759Z,98680.84
2018-06-27T03:58:20.305Z,98679.64
2018-06-27T03:59:24.821Z,98680.05
2018-06-27T04:00:30.151Z,98683.54
2018-06-27T04:01:35.918Z,98684.31
2018-06-27T04:02:40.601Z,98689.91
2018-06-27T04:03:46.386Z,98684.66
2018-06-27T04:04:51.065Z,98682.28
2018-06-27T04:05:56.224Z,98683.83
2018-06-27T04:07:00.846Z,98681.77
2018-06-27T04:08:06.443Z,98682.95
2018-06-27T04:09:12.361Z,98684.58
2018-06-27T04:10:16.974Z,98681.83
2018-06-27T04:11:21.490Z,98680.75
2018-06-27T04:12:26.380Z,98676.97
2018-06-27T04:13:30.955Z,98679.92
2018-06-27T04:14:36.642Z,98678.42
2018-06-27T04:15:41.129Z,98677.52
2018-06-27T04:16:45.634Z,98678.38
2018-06-27T04:17:50.399Z,98680.17
2018-06-27T04:18:54.903Z,98679.12
2018-06-27T04:19:59.427Z,98678.61
2018-06-27T04:21:05.279Z,98680.52
2018-06-27T04:22:09.853Z,98681.55
2018-06-27T04:23:15.069Z,98683.13
2018-06-27T04:24:19.591Z,98684.31
2018-06-27T04:25:28.708Z,98681.55
2018-06-27T04:26:33.210Z,98685.02
2018-06-27T04:27:38.059Z,98686.06
2018-06-27T04:28:42.901Z,98681.05
2018-06-27T04:29:47.405Z,98680.23
2018-06-27T04:30:52.632Z,98687.66
2018-06-27T04:31:57.462Z,98680.52
2018-06-27T04:33:02.398Z,98687.12
2018-06-27T04:34:07.209Z,98683.55
2018-06-27T04:35:12.626Z,98689.45
2018-06-27T04:36:17.158Z,98687.66
2018-06-27T04:37:22.618Z,98686.69
2018-06-27T04:38:27.143Z,98683.96
2018-06-27T04:39:32.696Z,98683.59
2018-06-27T04:40:37.504Z,98677.20
2018-06-27T04:41:42.062Z,98677.28
2018-06-27T04:42:46.614Z,98683.34
2018-06-27T04:43:51.966Z,98676.00
2018-06-27T04:44:56.495Z,98679.42
2018-06-27T04:46:01.040Z,98673.87
2018-06-27T04:47:07.630Z,98679.52
2018-06-27T04:48:13.702Z,98681.81
2018-06-27T04:49:18.529Z,98682.48
2018-06-27T04:50:23.144Z,98678.53
2018-06-27T04:51:27.740Z,98682.36
2018-06-27T04:52:32.248Z,98675.33
2018-06-27T04:53:37.104Z,98685.33
2018-06-27T04:54:42.336Z,98682.60
2018-06-27T04:55:46.890Z,98684.67
2018-06-27T04:56:51.452Z,98684.70
2018-06-27T04:57:55.933Z,98682.18
2018-06-27T04:59:00.532Z,98683.37
2018-06-27T05:00:05.625Z,98680.47
2018-06-27T05:01:11.313Z,98689.35
2018-06-27T05:02:17.243Z,98692.95
2018-06-27T05:03:22.245Z,98687.02
2018-06-27T05:04:27.741Z,98691.66
2018-06-27T05:05:32.273Z,98690.69
2018-06-27T05:06:37.554Z,98692.77
2018-06-27T05:07:42.054Z,98690.58
2018-06-27T05:08:49.461Z,98687.95
2018-06-27T05:09:54.135Z,98687.25
2018-06-27T05:10:58.665Z,98691.53
2018-06-27T05:12:03.262Z,98692.95
2018-06-27T05:13:08.181Z,98696.00
2018-06-27T05:14:12.791Z,98695.31
2018-06-27T05:15:19.385Z,98691.29
2018-06-27T05:16:25.086Z,98688.22
2018-06-27T05:17:31.516Z,98688.19
2018-06-27T05:18:37.921Z,98687.66
2018-06-27T05:19:44.627Z,98686.65
2018-06-27T05:20:56.345Z,98685.06
2018-06-27T05:22:01.141Z,98681.18
2018-06-27T05:23:06.678Z,98679.88
2018-06-27T05:24:11.696Z,98678.05
2018-06-27T05:25:16.330Z,98675.80
2018-06-27T05:26:21.263Z,98675.19
2018-06-27T05:27:26.954Z,98678.97
2018-06-27T05:28:31.669Z,98680.33
2018-06-27T05:29:36.409Z,98676.59
2018-06-27T05:30:41.833Z,98673.20
2018-06-27T05:31:47.328Z,98672.88
2018-06-27T05:32:53.317Z,98676.98
2018-06-27T05:33:58.829Z,98671.62
2018-06-27T05:35:06.682Z,98673.40
2018-06-27T05:36:11.451Z,98679.06
2018-06-27T05:37:17.206Z,98680.21
2018-06-27T05:38:21.840Z,98684.39
2018-06-27T05:39:26.818Z,98678.66
2018-06-27T05:40:32.091Z,98685.20
2018-06-27T05:41:38.266Z,98684.56
2018-06-27T05:42:42.817Z,98680.86
2018-06-27T05:43:47.330Z,98684.73
2018-06-27T05:44:51.903Z,98686.72
2018-06-27T05:45:57.722Z,98685.80
2018-06-27T05:47:02.287Z,98689.93
2018-06-27T05:48:06.817Z,98693.19
2018-06-27T05:49:12.158Z,98685.89
2018-06-27T05:50:17.564Z,98687.81
2018-06-27T05:51:22.785Z,98689.77
2018-06-27T05:52:27.710Z,98688.17
2018-06-27T05:53:32.276Z,98686.41
2018-06-27T05:54:37.828Z,98688.67
2018-06-27T05:55:42.365Z,98690.03
2018-06-27T05:56:46.858Z,98694.09
2018-06-27T05:57:52.336Z,98689.13
2018-06-27T05:58:58.833Z,98689.39
2018-06-27T06:00:04.786Z,98689.30
2018-06-27T06:01:10.867Z,98687.59
2018-06-27T06:02:15.562Z,98684.52
2018-06-27T06:03:20.911Z,98687.73
2018-06-27T06:04:25.482Z,98688.09
2018-06-27T06:05:30.290Z,98686.02
2018-06-27T06:06:34.855Z,98693.06
2018-06-27T06:07:40.336Z,98692.92
2018-06-27T06:08:46.033Z,98685.52
2018-06-27T06:09:50.728Z,98690.11
2018-06-27T06:10:55.459Z,98692.13
2018-06-27T06:12:00.577Z,98692.03
2018-06-27T06:13:06.121Z,98688.77
2018-06-27T06:14:10.777Z,98684.01
2018-06-27T06:15:15.419Z,98688.55
2018-06-27T06:16:19.949Z,98693.21
2018-06-27T06:17:24.870Z,98692.21
2018-06-27T06:18:29.916Z,98689.98
2018-06-27T06:19:34.580Z,98686.61
2018-06-27T06:20:39.217Z,98693.09
2018-06-27T06:21:44.775Z,98692.55
2018-06-27T06:22:52.320Z,98692.42
2018-06-27T06:23:57.252Z,98698.20
2018-06-27T06:25:02.204Z,98697.75
2018-06-27T06:26:07.905Z,98697.16
2018-06-27T06:27:13.816Z,98699.66
2018-06-27T06:28:18.788Z,98698.39
2018-06-27T06:29:23.414Z,98695.72
2018-06-27T06:30:29.789Z,98699.78
2018-06-27T06:31:34.411Z,98700.13
2018-06-27T06:32:39.012Z,98700.48
2018-06-27T06:33:43.611Z,98697.23
2018-06-27T06:34:48.859Z,98697.48
2018-06-27T06:35:54.862Z,98693.17
2018-06-27T06:36:59.859Z,98690.63
2018-06-27T06:38:04.590Z,98697.46
2018-06-27T06:39:09.667Z,98693.30
2018-06-27T06:40:14.310Z,98699.33
2018-06-27T06:41:18.817Z,98696.46
2018-06-27T06:42:26.247Z,98697.71
2018-06-27T06:43:31.261Z,98699.19
2018-06-27T06:44:35.815Z,98703.89
2018-06-27T06:45:40.365Z,98701.10
2018-06-27T06:46:44.928Z,98696.01
2018-06-27T06:47:50.153Z,98698.78
2018-06-27T06:48:55.374Z,98699.72
2018-06-27T06:50:00.381Z,98699.86
2018-06-27T06:51:04.957Z,98697.84
2018-06-27T06:52:10.534Z,98696.05
2018-06-27T06:53:15.169Z,98699.16
2018-06-27T06:54:19.696Z,98701.42
2018-06-27T06:55:27.535Z,98692.28
2018-06-27T06:56:32.395Z,98700.41
2018-06-27T06:57:51.291Z,98698.80
2018-06-27T06:58:55.849Z,98698.43
2018-06-27T07:00:00.372Z,98704.36
2018-06-27T07:01:05.458Z,98699.70
2018-06-27T07:02:10.048Z,98696.89
2018-06-27T07:03:15.746Z,98696.79
2018-06-27T07:04:20.325Z,98695.79
2018-06-27T07:05:24.850Z,98702.97
2018-06-27T07:06:30.262Z,98698.48
2018-06-27T07:07:35.534Z,98697.67
2018-06-27T07:08:40.060Z,98696.20
2018-06-27T07:09:46.459Z,98695.02
2018-06-27T07:10:52.496Z,98696.67
2018-06-27T07:11:58.446Z,98698.30
2018-06-27T07:13:02.986Z,98699.91
2018-06-27T07:14:07.569Z,98698.39
2018-06-27T07:15:13.741Z,98695.96
2018-06-27T07:16:19.509Z,98691.31
2018-06-27T07:17:24.235Z,98694.88
2018-06-27T07:18:29.281Z,98690.20
2018-06-27T07:19:35.063Z,98691.58
2018-06-27T07:20:39.661Z,98693.27
2018-06-27T07:21:44.416Z,98697.97
2018-06-27T07:22:51.231Z,98688.70
2018-06-27T07:23:57.329Z,98688.04
2018-06-27T07:25:01.866Z,98684.97
2018-06-27T07:26:06.397Z,98685.27
2018-06-27T07:27:11.247Z,98688.84
2018-06-27T07:28:15.793Z,98689.13
2018-06-27T07:29:21.730Z,98690.58
2018-06-27T07:30:26.337Z,98687.09
2018-06-27T07:31:30.884Z,98690.80
2018-06-27T07:32:35.689Z,98688.63
2018-06-27T07:33:40.508Z,98693.42
2018-06-27T07:34:45.232Z,98688.48
2018-06-27T07:35:51.070Z,98688.86
2018-06-27T07:36:55.602Z,98691.20
2018-06-27T07:38:02.039Z,98689.44
2018-06-27T07:39:08.150Z,98684.84
2018-06-27T07:40:14.717Z,98688.03
2018-06-27T07:41:19.450Z,98690.78
2018-06-27T07:42:24.599Z,98685.72
2018-06-27T07:43:29.251Z,98692.81
2018-06-27T07:44:34.001Z,98692.13
2018-06-27T07:45:38.683Z,98691.20
2018-06-27T07:46:43.391Z,98694.57
2018-06-27T07:47:48.047Z,98687.68
2018-06-27T07:48:52.925Z,98686.14
2018-06-27T07:49:57.561Z,98693.97
2018-06-27T07:51:02.224Z,98686.56
2018-06-27T07:52:06.859Z,98688.36
2018-06-27T07:53:12.129Z,98683.84
2018-06-27T07:54:17.096Z,98689.41
2018-06-27T07:55:21.804Z,98687.98
2018-06-27T07:56:26.422Z,98686.10
2018-06-27T07:57:31.505Z,98689.85
2018-06-27T07:58:36.591Z,98684.45
2018-06-27T07:59:41.300Z,98682.97
2018-06-27T08:00:47.488Z,98685.05
2018-06-27T08:01:52.571Z,98678.05
2018-06-27T08:02:57.221Z,98677.72
2018-06-27T08:05:07.206Z,98679.71
2018-06-27T08:06:14.041Z,98678.66
2018-06-27T08:07:18.839Z,98681.33
2018-06-27T08:08:23.386Z,98685.05
2018-06-27T08:09:28.257Z,98679.99
2018-06-27T08:10:32.942Z,98678.61
2018-06-27T08:11:37.590Z,98679.50
2018-06-27T08:12:43.115Z,98681.65
2018-06-27T08:13:47.831Z,98683.70
2018-06-27T08:14:53.333Z,98680.41
2018-06-27T08:15:58.678Z,98680.33
2018-06-27T08:17:05.227Z,98685.72
2018-06-27T08:18:12.258Z,98683.35
2018-06-27T08:19:20.289Z,98685.42
2018-06-27T08:20:26.676Z,98682.10
2018-06-27T08:21:32.406Z,98684.30
2018-06-27T08:23:40.756Z,98676.47
2018-06-27T08:24:46.638Z,98683.02
2018-06-27T08:25:53.433Z,98679.37
2018-06-27T08:26:58.028Z,98676.66
2018-06-27T08:28:02.605Z,98672.02
2018-06-27T08:29:08.837Z,98675.53
2018-06-27T08:30:13.445Z,98675.63
2018-06-27T08:31:19.475Z,98676.10
2018-06-27T08:32:25.028Z,98682.50
2018-06-27T08:33:29.662Z,98677.97
2018-06-27T08:34:34.426Z,98671.84
2018-06-27T08:35:39.036Z,98673.79
2018-06-27T08:36:44.646Z,98675.96
2018-06-27T08:37:50.509Z,98675.09
2018-06-27T08:38:57.157Z,98667.34
2018-06-27T08:40:01.846Z,98668.83
2018-06-27T08:41:06.573Z,98670.41
2018-06-27T08:42:12.223Z,98672.57
2018-06-27T08:43:16.798Z,98672.23
2018-06-27T08:44:21.926Z,98672.33
2018-06-27T08:45:28.802Z,98666.58
2018-06-27T08:46:33.507Z,98671.34
2018-06-27T08:47:38.079Z,98668.50
2018-06-27T08:48:45.190Z,98668.34
2018-06-27T08:49:50.273Z,98669.60
2018-06-27T08:50:54.844Z,98672.51
2018-06-27T08:52:00.187Z,98669.23
2018-06-27T08:53:05.716Z,98662.27
2018-06-27T08:54:10.238Z,98663.18
2018-06-27T08:55:15.904Z,98665.06
2018-06-27T08:56:21.534Z,98667.15
2018-06-27T08:57:26.456Z,98667.41
2018-06-27T08:58:31.329Z,98662.27
2018-06-27T08:59:37.443Z,98660.55
2018-06-27T09:00:42.569Z,98661.13
2018-06-27T09:01:47.445Z,98661.80
2018-06-27T09:02:53.246Z,98663.84
2018-06-27T09:03:57.810Z,98663.27
2018-06-27T09:05:02.660Z,98656.45
2018-06-27T09:06:07.263Z,98649.20
2018-06-27T09:07:13.347Z,98654.98
2018-06-27T09:08:17.982Z,98652.16
2018-06-27T09:09:23.318Z,98651.21
2018-06-27T09:10:29.740Z,98650.77
2018-06-27T09:11:34.405Z,98652.13
2018-06-27T09:12:40.613Z,98649.93
2018-06-27T09:13:46.857Z,98651.75
2018-06-27T09:14:51.898Z,98652.16
2018-06-27T09:15:57.710Z,98648.30
2018-06-27T09:17:03.349Z,98654.28
2018-06-27T09:18:07.897Z,98653.67
2018-06-27T09:19:12.534Z,98652.98
2018-06-27T09:20:17.415Z,98651.44
2018-06-27T09:21:23.242Z,98644.70
2018-06-27T09:22:29.246Z,98650.93
2018-06-27T09:23:33.993Z,98651.45
2018-06-27T09:24:39.293Z,98646.05
2018-06-27T09:25:43.957Z,98642.89
2018-06-27T09:26:49.430Z,98649.59
2018-06-27T09:27:54.433Z,98648.58
2018-06-27T09:29:00.996Z,98641.89
2018-06-27T09:30:06.656Z,98638.25
2018-06-27T09:31:12.264Z,98645.86
2018-06-27T09:32:17.617Z,98643.52
2018-06-27T09:33:25.952Z,98638.72
2018-06-27T09:34:30.643Z,98646.01
2018-06-27T09:35:35.290Z,98645.84
2018-06-27T09:36:40.447Z,98642.09
2018-06-27T09:37:45.366Z,98639.69
2018-06-27T09:38:50.133Z,98642.48
2018-06-27T09:39:54.888Z,98643.71
2018-06-27T09:41:00.427Z,98638.70
2018-06-27T09:42:05.649Z,98648.16
2018-06-27T09:43:16.536Z,98645.70
2018-06-27T09:44:21.601Z,98646.52
2018-06-27T09:45:27.232Z,98642.63
2018-06-27T09:46:31.912Z,98640.98
2018-06-27T09:47:36.888Z,98641.59
2018-06-27T09:48:42.524Z,98642.31
2018-06-27T09:49:47.239Z,98637.97
2018-06-27T09:50:52.806Z,98638.98
2018-06-27T09:51:58.536Z,98642.26
2018-06-27T09:53:05.373Z,98628.66
2018-06-27T09:54:10.566Z,98635.56
2018-06-27T09:55:16.258Z,98633.66
2018-06-27T09:56:22.924Z,98633.03
2018-06-27T09:57:27.749Z,98635.36
2018-06-27T09:58:32.467Z,98628.58
2018-06-27T09:59:40.798Z,98627.40
2018-06-27T10:00:47.165Z,98626.17
2018-06-27T10:01:53.961Z,98626.37
2018-06-27T10:02:58.685Z,98628.54
2018-06-27T10:04:03.622Z,98621.91
2018-06-27T10:05:08.255Z,98625.88
2018-06-27T10:06:12.813Z,98627.50
2018-06-27T10:07:19.318Z,98625.25
2018-06-27T10:08:25.674Z,98631.88
2018-06-27T10:09:31.715Z,98620.64
2018-06-27T10:10:37.639Z,98621.46
2018-06-27T10:11:42.730Z,98622.48
2018-06-27T10:12:49.126Z,98613.67
2018-06-27T10:13:53.670Z,98611.92
2018-06-27T10:14:58.615Z,98615.30
2018-06-27T10:16:04.023Z,98610.31
2018-06-27T10:17:10.330Z,98608.06
2018-06-27T10:18:15.012Z,98607.30
2018-06-27T10:19:23.429Z,98605.42
2018-06-27T10:20:28.130Z,98595.45
2018-06-27T10:21:32.961Z,98590.73
2018-06-27T10:22:37.734Z,98599.26
2018-06-27T10:23:42.333Z,98600.08
2018-06-27T10:24:48.155Z,98595.92
2018-06-27T10:25:58.888Z,98593.98
2018-06-27T10:27:12.358Z,98596.53
2018-06-27T10:28:20.941Z,98592.02
2018-06-27T10:29:25.880Z,98592.67
2018-06-27T10:30:42.056Z,98590.08
2018-06-27T10:31:49.612Z,98589.66
2018-06-27T10:33:00.213Z,98590.13
2018-06-27T10:34:07.309Z,98592.25
2018-06-27T10:35:14.789Z,98585.22
2018-06-27T10:36:24.611Z,98581.37
2018-06-27T10:37:33.327Z,98590.58
2018-06-27T10:38:39.725Z,98577.68
2018-06-27T10:39:45.070Z,98578.33
2018-06-27T10:40:50.645Z,98588.16
2018-06-27T10:41:55.312Z,98583.20
2018-06-27T10:43:01.622Z,98578.87
2018-06-27T10:44:08.652Z,98581.11
2018-06-27T10:45:15.080Z,98594.11
2018-06-27T10:46:19.745Z,98597.63
2018-06-27T10:47:24.485Z,98596.84
2018-06-27T10:48:29.966Z,98586.25
2018-06-27T10:49:34.597Z,98587.70
2018-06-27T10:50:40.178Z,98585.44
2018-06-27T10:51:46.611Z,98591.70
2018-06-27T10:52:52.689Z,98582.54
2018-06-27T10:53:57.538Z,98579.96
2018-06-27T10:55:06.329Z,98589.45
2018-06-27T10:56:13.818Z,98583.22
2018-06-27T10:57:18.637Z,98580.80
2018-06-27T10:58:24.059Z,98579.52
2018-06-27T10:59:29.659Z,98584.45
2018-06-27T11:00:34.866Z,98580.11
2018-06-27T11:01:41.921Z,98577.52
2018-06-27T11:02:47.769Z,98575.83
2018-06-27T11:03:52.461Z,98577.27
2018-06-27T11:04:57.063Z,98573.68
2018-06-27T11:06:02.724Z,98574.03
2018-06-27T11:07:07.834Z,98571.47
2018-06-27T11:08:12.858Z,98572.92
2018-06-27T11:09:17.990Z,98575.62
2018-06-27T11:10:22.752Z,98570.64
2018-06-27T11:11:28.835Z,98567.87
2018-06-27T11:12:35.034Z,98572.01
2018-06-27T11:13:41.435Z,98574.84
2018-06-27T11:14:46.441Z,98563.01
2018-06-27T11:15:51.116Z,98568.20
2018-06-27T11:16:55.822Z,98564.66
2018-06-27T11:18:00.337Z,98565.47
2018-06-27T11:19:20.367Z,98568.00
2018-06-27T11:20:29.271Z,98566.39
2018-06-27T11:21:35.170Z,98560.13
2018-06-27T11:22:41.360Z,98560.44
2018-06-27T11:23:47.294Z,98561.08
2018-06-27T11:24:52.442Z,98553.25
2018-06-27T11:25:58.580Z,98554.70
2018-06-27T11:27:03.471Z,98554.59
2018-06-27T11:28:09.878Z,98551.52
2018-06-27T11:29:14.502Z,98552.94
2018-06-27T11:30:20.421Z,98543.91
2018-06-27T11:31:28.853Z,98547.44
2018-06-27T11:32:33.682Z,98541.08
2018-06-27T11:33:39.946Z,98540.27
2018-06-27T11:34:44.487Z,98538.00
2018-06-27T11:35:49.029Z,98539.86
2018-06-27T11:36:55.312Z,98543.03
2018-06-27T11:37:59.931Z,98537.27
2018-06-27T11:39:07.823Z,98537.13
2018-06-27T11:40:13.275Z,98545.40
2018-06-27T11:41:19.165Z,98544.76
2018-06-27T11:42:26.090Z,98540.89
2018-06-27T11:43:31.284Z,98538.63
2018-06-27T11:44:35.842Z,98537.16
2018-06-27T11:45:40.916Z,98529.94
2018-06-27T11:46:46.360Z,98534.77
2018-06-27T11:47:50.882Z,98531.84
2018-06-27T11:48:57.030Z,98536.40
2018-06-27T11:50:03.002Z,98537.37
2018-06-27T11:51:08.543Z,98527.06
2018-06-27T11:52:14.074Z,98527.23
2018-06-27T11:53:18.788Z,98527.85
2018-06-27T11:54:26.421Z,98522.55
2018-06-27T11:55:33.798Z,98516.13
2018-06-27T11:56:39.390Z,98523.19
2018-06-27T11:57:45.864Z,98528.52
2018-06-27T11:58:51.747Z,98523.85
2018-06-27T11:59:56.279Z,98527.70
2018-06-27T12:01:01.743Z,98526.59
2018-06-27T12:02:06.296Z,98527.39
2018-06-27T12:03:11.213Z,98525.74
2018-06-27T12:04:16.341Z,98524.94
2018-06-27T12:05:22.662Z,98522.36
2018-06-27T12:06:28.218Z,98527.69
2018-06-27T12:07:32.791Z,98528.00
2018-06-27T12:08:38.893Z,98522.19
2018-06-27T12:09:44.425Z,98521.55
2018-06-27T12:10:50.550Z,98519.64
2018-06-27T12:11:55.632Z,98521.86
2018-06-27T12:13:02.732Z,98518.94
2018-06-27T12:14:07.399Z,98515.91
2018-06-27T12:15:12.030Z,98518.70
2018-06-27T12:16:17.942Z,98516.30
2018-06-27T12:17:24.941Z,98509.53
2018-06-27T12:18:30.028Z,98506.96
2018-06-27T12:19:35.791Z,98510.66
2018-06-27T12:20:40.400Z,98507.14
2018-06-27T12:21:47.289Z,98504.05
2018-06-27T12:22:52.097Z,98504.20
2018-06-27T12:23:57.175Z,98521.41
2018-06-27T12:25:01.798Z,98506.11
2018-06-27T12:26:08.479Z,98513.75
2018-06-27T12:27:13.622Z,98517.09
2018-06-27T12:28:20.103Z,98515.92
2018-06-27T12:29:24.846Z,98513.08
2018-06-27T12:30:31.796Z,98512.72
2018-06-27T12:31:37.518Z,98510.50
2018-06-27T12:32:43.962Z,98495.97
2018-06-27T12:33:50.400Z,98507.44
2018-06-27T12:35:00.845Z,98499.89
2018-06-27T12:36:07.189Z,98504.19
2018-06-27T12:37:15.130Z,98500.44
2018-06-27T12:38:22.039Z,98505.40
2018-06-27T12:39:29.948Z,98500.90
2018-06-27T12:40:35.738Z,98502.66
2018-06-27T12:41:41.646Z,98505.66
2018-06-27T12:42:46.344Z,98504.96
2018-06-27T12:43:51.232Z,98504.81
2018-06-27T12:44:55.848Z,98508.34
2018-06-27T12:46:02.535Z,98495.62
2018-06-27T12:47:09.439Z,98493.97
2018-06-27T12:48:15.369Z,98492.73
2018-06-27T12:49:21.272Z,98503.36